Nearby METAR Reports

 

KTAN - Taunton, Massachusetts, USA
Distance from station: W 5mi, 8km
Updated: Fri, 02-Dec-2022 8:52pm EST

 
Barometer: 30.48 inHg , 1032.2 hPa
2022/12/03 01:52 KTAN 030152Z AUTO A3048 RMK AO2 SLPNO PWINO FZRANO TSNO $
KPYM - Plymouth, Massachusetts, USA
Distance from station: ENE 10mi, 16km
Updated: Fri, 02-Dec-2022 8:52pm EST
Mostly cloudy
Mostly cloudy
 Wind from calm
Wind: Calm
Temperature: 36°F , 2°C
Dew Point: 30°F , -1°C
Humidity: 81%
Barometer: 30.48 inHg , 1032.2 hPa
Clouds: Mostly cloudy
Visibility: 10 miles , 16 km
Cloud details: Few Clouds 2800 ft
Mostly cloudy 12000 ft
2022/12/03 01:52 KPYM 030152Z AUTO 00000KT 10SM FEW028 BKN120 02/M01 A3048 RMK AO2 SLP324 T00221011
 
KEWB - New Bedford, Massachusetts, USA
Distance from station: S 14mi, 23km
Updated: Fri, 02-Dec-2022 8:53pm EST
Mostly cloudy
Mostly cloudy
 Wind from calm
Wind: Calm
Temperature: 37°F , 3°C
Dew Point: 34°F , 1°C
Humidity: 87%
Barometer: 30.48 inHg , 1032.2 hPa
Clouds: Mostly cloudy
Visibility: 10 miles , 16 km
Cloud details: Few Clouds 2900 ft
Mostly cloudy 12000 ft
2022/12/03 01:53 KEWB 030153Z 00000KT 10SM FEW029 BKN120 03/01 A3048 RMK AO2 SLP321 T00330011
KGHG - Marshfield, Massachusetts, USA
Distance from station: NE 20mi, 31km
Updated: Fri, 02-Dec-2022 9:35pm EST

 Wind from calm
Wind: Calm
Temperature: 39°F , 4°C
Dew Point: 32°F , 0°C
Humidity: 75%
Barometer: 30.47 inHg , 1031.8 hPa
Visibility: 10 miles , 16 km
2022/12/03 02:35 KGHG 030235Z AUTO 00000KT 10SM 04/00 A3047 RMK AO2
 
KOWD - Norwood, Massachusetts, USA
Distance from station: NNW 24mi, 39km
Updated: Fri, 02-Dec-2022 8:53pm EST
Clear
Clear
 Wind from calm
Wind: Calm
Temperature: 37°F , 3°C
Dew Point: 28°F , -2°C
Humidity: 70%
Barometer: 30.47 inHg , 1031.8 hPa
Clouds: Clear
Visibility: 10 miles , 16 km
2022/12/03 01:53 KOWD 030153Z AUTO 00000KT 10SM CLR 03/M02 A3047 RMK AO2 SLP319 T00281022
KMQE - East Milton, Massachusetts, USA
Distance from station: NNW 25mi, 40km
Updated: Thu, 01-Jul-2021 9:51am EDT
NOT Current

 Wind from WNW
Wind: WNW 9 mph , 15 km/h
Temperature: 75°F , 24°C
Dew Point: 70°F , 21°C
Humidity: 83%
Barometer: 29.86 inHg , 1011.2 hPa
2021/07/01 13:51 KMQE 011351Z AUTO 30008KT 24/21 A2986 RMK AO1 SLP116 T02440206
 
KFMH - Falmouth/Otis Ab, Massachusetts, USA
Distance from station: SE 27mi, 44km
Updated: Fri, 02-Dec-2022 8:55pm EST
Clear
Clear
 Wind from S
Wind: S 6 mph , 9 km/h
Temperature: 39°F , 4°C
Wind Chill: 35°F , 2°C
Dew Point: 34°F , 1°C
Humidity: 81%
Barometer: 30.50 inHg , 1032.8 hPa
Clouds: Clear
Visibility: 10 miles , 16 km
2022/12/03 01:55 KFMH 030155Z 18005KT 10SM CLR 04/01 A3050
KPVD - Providence/Green, Rhode Island, USA
Distance from station: WSW 29mi, 47km
Updated: Fri, 02-Dec-2022 8:51pm EST
Overcast
Overcast
 Wind from SSW
Wind: SSW 5 mph , 7 km/h
Temperature: 39°F , 4°C
Wind Chill: 35°F , 2°C
Dew Point: 30°F , -1°C
Humidity: 70%
Barometer: 30.47 inHg , 1031.8 hPa
Clouds: Overcast
Visibility: 10 miles , 16 km
Cloud details: Overcast 12000 ft
2022/12/03 01:51 KPVD 030151Z 21004KT 10SM OVC120 04/M01 A3047 RMK AO2 SLP320 T00391006
 
KSFZ - Pawtucket, Rhode Island, USA
Distance from station: W 30mi, 48km
Updated: Fri, 02-Dec-2022 8:56pm EST
Overcast
Overcast
 Wind from varies
Wind: varies 5 mph , 7 km/h
Temperature: 37°F , 3°C
Wind Chill: 33°F , 1°C
Dew Point: 30°F , -1°C
Humidity: 75%
Barometer: 30.45 inHg , 1031.2 hPa
Clouds: Overcast
Visibility: 10 miles , 16 km
Cloud details: Overcast 12000 ft
2022/12/03 01:56 KSFZ 030156Z AUTO VRB04KT 10SM OVC120 03/M01 A3045 RMK AO2 SLP317 T00331006
KUUU - Newport, Rhode Island, USA
Distance from station: SW 31mi, 50km
Updated: Fri, 02-Dec-2022 9:27pm EST
Overcast
Overcast
 Wind from SSW
Wind: SSW 8 mph , 13 km/h
Temperature: 45°F , 7°C
Wind Chill: 41°F , 5°C
Dew Point: 37°F , 3°C
Humidity: 76%
Barometer: 30.46 inHg , 1031.5 hPa
Clouds: Overcast
Visibility: 10 miles , 16 km
Cloud details: Partly cloudy 2400 ft
Overcast 12000 ft
2022/12/03 02:27 KUUU 030227Z AUTO 21007KT 10SM SCT024 OVC120 07/03 A3046 RMK AO2 T00720028
 
KOQU - N. Kingston/Quon, Rhode Island, USA
Distance from station: SW 32mi, 52km
Updated: Fri, 02-Dec-2022 8:50pm EST
Partly cloudy
Partly cloudy
 Wind from WSW
Wind: WSW 6 mph , 9 km/h
Temperature: 43°F , 6°C
Wind Chill: 39°F , 4°C
Dew Point: 28°F , -2°C
Humidity: 57%
Barometer: 30.48 inHg , 1032.2 hPa
Clouds: Partly cloudy
Visibility: 10 miles , 16 km
Cloud details: Partly cloudy 2900 ft
2022/12/03 01:50 KOQU 030150Z 24005KT 10SM SCT029OVC120 06/M02 A3048
KBOS - Boston, Massachusetts, USA
Distance from station: N 33mi, 54km
Updated: Fri, 02-Dec-2022 8:54pm EST
Overcast
Overcast
 Wind from S
Wind: S 7 mph , 11 km/h
Temperature: 39°F , 4°C
Wind Chill: 34°F , 1°C
Dew Point: 28°F , -2°C
Humidity: 65%
Barometer: 30.47 inHg , 1031.8 hPa
Clouds: Overcast
Visibility: 10 miles , 16 km
Cloud details: Few Clouds 13000 ft
Overcast 14000 ft
2022/12/03 01:54 KBOS 030154Z 19006KT 10SM FEW130 OVC140 04/M02 A3047 RMK AO2 SLP318 T00441017
 
KHYA - Hyannis, Massachusetts, USA
Distance from station: ESE 37mi, 59km
Updated: Fri, 02-Dec-2022 8:56pm EST
Overcast
Overcast
 Wind from SSW
Wind: SSW 7 mph , 11 km/h
Temperature: 45°F , 7°C
Wind Chill: 41°F , 5°C
Dew Point: 37°F , 3°C
Humidity: 76%
Barometer: 30.48 inHg , 1032.2 hPa
Clouds: Overcast
Visibility: 10 miles , 16 km
Cloud details: Partly cloudy 3000 ft
Overcast 12000 ft
2022/12/03 01:56 KHYA 030156Z 20006KT 10SM SCT030 OVC120 07/03 A3048 RMK AO2 SLP324 T00720033
KMVY - Marthas Vineyard, Massachusetts, USA
Distance from station: SSE 37mi, 60km
Updated: Fri, 02-Dec-2022 8:53pm EST
Partly cloudy
Partly cloudy
 Wind from SSW
Wind: SSW 10 mph , 17 km/h
Temperature: 48°F , 9°C
Wind Chill: 44°F , 7°C
Dew Point: 37°F , 3°C
Humidity: 66%
Barometer: 30.49 inHg , 1032.5 hPa
Clouds: Partly cloudy
Visibility: 10 miles , 16 km
Cloud details: Few Clouds 2900 ft
Partly cloudy 12000 ft
2022/12/03 01:53 KMVY 030153Z AUTO 21009KT 10SM FEW029 SCT120 09/03 A3049 RMK AO2 SLP325 T00940033
 
KPVC - Provincetown, Massachusetts, USA
Distance from station: ENE 38mi, 61km
Updated: Fri, 02-Dec-2022 8:56pm EST
Clear
Clear
 Wind from S
Wind: S 10 mph , 17 km/h
Temperature: 45°F , 7°C
Wind Chill: 40°F , 4°C
Dew Point: 37°F , 3°C
Humidity: 76%
Barometer: 30.50 inHg , 1032.8 hPa
Clouds: Clear
Visibility: 10 miles , 16 km
2022/12/03 01:56 KPVC 030156Z AUTO 18009KT 10SM CLR 07/03 A3050 RMK AO2 SLP327 T00670028
KBED - Bedford, Massachusetts, USA
Distance from station: NNW 44mi, 72km
Updated: Fri, 02-Dec-2022 8:51pm EST
Clear
Clear
 Wind from S
Wind: S 5 mph , 7 km/h
Temperature: 39°F , 4°C
Wind Chill: 35°F , 2°C
Dew Point: 27°F , -3°C
Humidity: 61%
Barometer: 30.45 inHg , 1031.2 hPa
Clouds: Clear
Visibility: 10 miles , 16 km
2022/12/03 01:51 KBED 030151Z 17004KT 10SM CLR 04/M03 A3045 RMK AO2 SLP328 T00441033
 
KBVY - Beverly, Massachusetts, USA
Distance from station: 0 48mi, 77km
Updated: Fri, 02-Dec-2022 8:53pm EST
Clear
Clear
 Wind from calm
Wind: Calm
Temperature: 37°F , 3°C
Dew Point: 27°F , -3°C
Humidity: 65%
Barometer: 30.46 inHg , 1031.5 hPa
Clouds: Clear
Visibility: 10 miles , 16 km
2022/12/03 01:53 KBVY 030153Z AUTO 00000KT 10SM CLR 03/M03 A3046 RMK AO2 SLP313 T00281028
KCQX - Chatham, Massachusetts, USA
Distance from station: ESE 49mi, 80km
Updated: Fri, 02-Dec-2022 8:52pm EST
Overcast
Overcast
 Wind from SSW
Wind: SSW 6 mph , 9 km/h
Temperature: 46°F , 8°C
Wind Chill: 43°F , 6°C
Dew Point: 37°F , 3°C
Humidity: 71%
Barometer: 30.51 inHg , 1033.2 hPa
Clouds: Overcast
Visibility: 10 miles , 16 km
Cloud details: Few Clouds 3000 ft
Overcast 12000 ft
2022/12/03 01:52 KCQX 030152Z AUTO 20005KT 10SM FEW030 OVC120 08/03 A3051 RMK AO2 SLP334 T00830033